createdAt,value
2022-11-05T03:58:59.114Z,18.97
2022-11-05T04:00:01.083Z,18.95
2022-11-05T04:00:59.961Z,18.95
2022-11-05T04:01:57.851Z,18.97
2022-11-05T04:02:58.981Z,18.99
2022-11-05T04:03:59.034Z,19.05
2022-11-05T04:05:00.302Z,19.08
2022-11-05T04:05:59.474Z,19.11
2022-11-05T04:06:58.363Z,19.13
2022-11-05T04:07:59.580Z,19.13
2022-11-05T04:08:59.659Z,19.18
2022-11-05T04:10:00.079Z,19.20
2022-11-05T04:11:00.341Z,19.21
2022-11-05T04:11:59.058Z,19.24
2022-11-05T04:13:00.249Z,19.23
2022-11-05T04:14:03.097Z,19.25
2022-11-05T04:15:00.791Z,19.28
2022-11-05T04:16:02.512Z,19.29
2022-11-05T04:17:01.397Z,19.29
2022-11-05T04:18:00.971Z,19.31
2022-11-05T04:19:01.762Z,19.32
2022-11-05T04:20:01.356Z,19.32
2022-11-05T04:21:01.344Z,19.33
2022-11-05T04:22:00.678Z,19.35
2022-11-05T04:23:02.417Z,19.36
2022-11-05T04:24:03.794Z,19.35
2022-11-05T04:25:03.035Z,19.38
2022-11-05T04:26:02.126Z,19.36
2022-11-05T04:27:01.439Z,19.38
2022-11-05T04:28:02.679Z,19.39
2022-11-05T04:29:05.247Z,19.39
2022-11-05T04:30:04.748Z,19.39
2022-11-05T04:31:02.891Z,19.39
2022-11-05T04:32:01.864Z,19.39
2022-11-05T04:33:03.233Z,19.39
2022-11-05T04:34:05.348Z,19.40
2022-11-05T04:35:03.858Z,19.40
2022-11-05T04:36:03.125Z,19.40
2022-11-05T04:37:02.521Z,19.40
2022-11-05T04:38:03.678Z,19.38
2022-11-05T04:39:02.818Z,19.40
2022-11-05T04:40:04.343Z,19.40
2022-11-05T04:41:04.809Z,19.39
2022-11-05T04:42:03.204Z,19.40
2022-11-05T04:43:03.394Z,19.39
2022-11-05T04:44:04.474Z,19.40
2022-11-05T04:45:03.554Z,19.40
2022-11-05T04:46:05.459Z,19.40
2022-11-05T04:47:05.757Z,19.40
2022-11-05T04:48:11.253Z,19.40
2022-11-05T04:49:04.262Z,19.39
2022-11-05T04:50:05.104Z,19.40
2022-11-05T04:51:06.103Z,19.42
2022-11-05T04:52:07.488Z,19.40
2022-11-05T04:53:07.181Z,19.42
2022-11-05T04:54:06.754Z,19.39
2022-11-05T04:55:06.004Z,19.40
2022-11-05T04:56:07.316Z,19.40
2022-11-05T04:57:06.004Z,19.40
2022-11-05T04:58:07.842Z,19.39
2022-11-05T04:59:09.252Z,19.42
2022-11-05T05:00:07.055Z,19.40
2022-11-05T05:01:06.745Z,19.40
2022-11-05T05:02:06.824Z,19.42
2022-11-05T05:03:07.822Z,19.42
2022-11-05T05:04:08.584Z,19.42
2022-11-05T05:05:07.500Z,19.42
2022-11-05T05:06:08.952Z,19.42
2022-11-05T05:07:07.570Z,19.40
2022-11-05T05:08:07.839Z,19.40
2022-11-05T05:09:08.080Z,19.42
2022-11-05T05:10:08.045Z,19.42
2022-11-05T05:11:08.171Z,19.40
2022-11-05T05:12:07.317Z,19.40
2022-11-05T05:13:08.845Z,19.40
2022-11-05T05:14:08.591Z,19.40
2022-11-05T05:15:08.689Z,19.40
2022-11-05T05:16:08.890Z,19.39
2022-11-05T05:17:09.072Z,19.39
2022-11-05T05:18:10.689Z,19.39
2022-11-05T05:19:10.569Z,19.40
2022-11-05T05:20:10.790Z,19.39
2022-11-05T05:21:10.960Z,19.39
2022-11-05T05:22:09.587Z,19.39
2022-11-05T05:23:11.629Z,19.38
2022-11-05T05:24:11.171Z,19.39
2022-11-05T05:25:11.509Z,19.38
2022-11-05T05:26:11.701Z,19.38
2022-11-05T05:27:11.769Z,19.38
2022-11-05T05:28:11.892Z,19.39
2022-11-05T05:29:11.737Z,19.38
2022-11-05T05:30:12.188Z,19.38
2022-11-05T05:31:12.375Z,19.38
2022-11-05T05:32:10.800Z,19.38
2022-11-05T05:33:11.472Z,19.39
2022-11-05T05:34:11.436Z,19.39
2022-11-05T05:35:11.432Z,19.38
2022-11-05T05:36:11.779Z,19.38
2022-11-05T05:37:12.499Z,19.36
2022-11-05T05:38:11.854Z,19.36
2022-11-05T05:39:11.915Z,19.38
2022-11-05T05:40:12.113Z,19.38
2022-11-05T05:41:12.862Z,19.35
2022-11-05T05:42:12.155Z,19.36
2022-11-05T05:43:12.929Z,19.35
2022-11-05T05:44:11.748Z,19.35
2022-11-05T05:45:12.995Z,19.36
2022-11-05T05:46:12.955Z,19.33
2022-11-05T05:47:13.056Z,19.35
2022-11-05T05:48:12.245Z,19.35
2022-11-05T05:49:13.510Z,19.33
2022-11-05T05:50:14.314Z,19.35
2022-11-05T05:51:13.591Z,19.35
2022-11-05T05:52:13.785Z,19.35
2022-11-05T05:53:14.052Z,19.33
2022-11-05T05:54:14.187Z,19.32
2022-11-05T05:55:14.972Z,19.35
2022-11-05T05:56:14.300Z,19.33
2022-11-05T05:57:14.283Z,19.32
2022-11-05T05:58:17.685Z,19.32
2022-11-05T05:59:15.454Z,19.35
2022-11-05T06:00:13.805Z,19.32
2022-11-05T06:01:18.917Z,19.32
2022-11-05T06:02:14.267Z,19.32
2022-11-05T06:03:16.651Z,19.32
2022-11-05T06:04:16.952Z,19.31
2022-11-05T06:05:14.547Z,19.29
2022-11-05T06:06:14.655Z,19.31
2022-11-05T06:07:17.313Z,19.32
2022-11-05T06:08:14.901Z,19.31
2022-11-05T06:09:16.006Z,19.29
2022-11-05T06:10:15.186Z,19.31
2022-11-05T06:11:15.326Z,19.31
2022-11-05T06:12:17.094Z,19.29
2022-11-05T06:13:16.546Z,19.31
2022-11-05T06:14:15.728Z,19.32
2022-11-05T06:15:16.972Z,19.31
2022-11-05T06:16:17.420Z,19.29
2022-11-05T06:17:16.136Z,19.32
2022-11-05T06:18:17.430Z,19.29
2022-11-05T06:19:16.274Z,19.29
2022-11-05T06:20:16.450Z,19.31
2022-11-05T06:21:18.784Z,19.29
2022-11-05T06:22:16.680Z,19.31
2022-11-05T06:23:17.995Z,19.29
2022-11-05T06:24:17.977Z,19.31
2022-11-05T06:25:18.147Z,19.28
2022-11-05T06:26:18.422Z,19.29
2022-11-05T06:27:17.367Z,19.29
2022-11-05T06:28:18.467Z,19.29
2022-11-05T06:29:18.814Z,19.28
2022-11-05T06:30:18.795Z,19.29
2022-11-05T06:31:20.168Z,19.31
2022-11-05T06:32:20.994Z,19.29
2022-11-05T06:33:19.326Z,19.31
2022-11-05T06:34:20.096Z,19.29
2022-11-05T06:35:19.543Z,19.28
2022-11-05T06:36:20.356Z,19.29
2022-11-05T06:37:20.624Z,19.29
2022-11-05T06:38:18.820Z,19.31
2022-11-05T06:39:22.487Z,19.31
2022-11-05T06:40:20.074Z,19.29
2022-11-05T06:41:22.875Z,19.29
2022-11-05T06:42:19.655Z,19.29
2022-11-05T06:43:19.614Z,19.31
2022-11-05T06:44:21.388Z,19.32
2022-11-05T06:45:19.754Z,19.29
2022-11-05T06:46:20.950Z,19.32
2022-11-05T06:47:20.150Z,19.31
2022-11-05T06:48:21.304Z,19.31
2022-11-05T06:49:20.249Z,19.31
2022-11-05T06:50:20.414Z,19.31
2022-11-05T06:51:20.515Z,19.32
2022-11-05T06:52:20.778Z,19.32
2022-11-05T06:53:21.963Z,19.32
2022-11-05T06:54:22.028Z,19.32
2022-11-05T06:55:22.169Z,19.31
2022-11-05T06:56:22.168Z,19.32
2022-11-05T06:57:22.299Z,19.32
2022-11-05T06:58:22.493Z,19.32
2022-11-05T06:59:23.720Z,19.33
2022-11-05T07:00:22.766Z,19.33
2022-11-05T07:01:23.381Z,19.35
2022-11-05T07:02:22.042Z,19.35
2022-11-05T07:03:22.071Z,19.35
2022-11-05T07:04:23.839Z,19.33
2022-11-05T07:05:22.381Z,19.35
2022-11-05T07:06:22.582Z,19.33
2022-11-05T07:07:22.664Z,19.35
2022-11-05T07:08:28.819Z,19.35
2022-11-05T07:09:25.442Z,19.35
2022-11-05T07:10:23.064Z,19.35
2022-11-05T07:11:23.315Z,19.35
2022-11-05T07:12:23.334Z,19.35
2022-11-05T07:13:23.512Z,19.38
2022-11-05T07:14:25.291Z,19.36
2022-11-05T07:15:23.664Z,19.36
2022-11-05T07:16:23.791Z,19.36
2022-11-05T07:17:24.074Z,19.39
2022-11-05T07:18:24.098Z,19.38
2022-11-05T07:19:25.851Z,19.38
2022-11-05T07:20:33.254Z,19.36
2022-11-05T07:21:26.449Z,19.36
2022-11-05T07:22:24.691Z,19.38
2022-11-05T07:23:27.431Z,19.38
2022-11-05T07:24:24.830Z,19.38
2022-11-05T07:25:27.550Z,19.36
2022-11-05T07:26:25.031Z,19.38
2022-11-05T07:27:27.746Z,19.38
2022-11-05T07:28:25.310Z,19.38
2022-11-05T07:29:27.090Z,19.38
2022-11-05T07:30:25.592Z,19.35
2022-11-05T07:31:25.649Z,19.36
2022-11-05T07:32:26.973Z,19.38
2022-11-05T07:33:31.133Z,19.39
2022-11-05T07:34:27.114Z,19.38
2022-11-05T07:35:26.284Z,19.38
2022-11-05T07:36:29.220Z,19.39
2022-11-05T07:37:26.925Z,19.39
2022-11-05T07:38:27.820Z,19.38
2022-11-05T07:39:27.700Z,19.39
2022-11-05T07:40:27.142Z,19.39
2022-11-05T07:41:27.021Z,19.40
2022-11-05T07:42:28.832Z,19.39
2022-11-05T07:43:27.698Z,19.40
2022-11-05T07:44:27.649Z,19.40
2022-11-05T07:45:27.549Z,19.42
2022-11-05T07:46:27.967Z,19.46
2022-11-05T07:47:30.444Z,19.46
2022-11-05T07:48:29.776Z,19.47
2022-11-05T07:49:28.889Z,19.46
2022-11-05T07:50:28.653Z,19.48
2022-11-05T07:51:29.977Z,19.48
2022-11-05T07:52:28.452Z,19.48
2022-11-05T07:53:28.635Z,19.50
2022-11-05T07:54:28.836Z,19.50
2022-11-05T07:55:29.627Z,19.51
2022-11-05T07:56:30.688Z,19.51
2022-11-05T07:57:29.143Z,19.53
2022-11-05T07:58:30.981Z,19.53
2022-11-05T07:59:30.267Z,19.53
2022-11-05T08:00:30.389Z,19.54
2022-11-05T08:01:31.253Z,19.54
2022-11-05T08:02:30.138Z,19.55
2022-11-05T08:03:30.274Z,19.55
2022-11-05T08:04:32.198Z,19.55
2022-11-05T08:05:33.695Z,19.57
2022-11-05T08:06:31.126Z,19.58
2022-11-05T08:07:30.489Z,19.58
2022-11-05T08:08:30.852Z,19.58
2022-11-05T08:09:30.984Z,19.60
2022-11-05T08:10:30.911Z,19.60
2022-11-05T08:11:32.826Z,19.63
2022-11-05T08:12:31.163Z,19.63
2022-11-05T08:13:31.224Z,19.65
2022-11-05T08:14:31.357Z,19.65
2022-11-05T08:15:32.474Z,19.65
2022-11-05T08:16:33.627Z,19.66
2022-11-05T08:17:31.935Z,19.68
2022-11-05T08:18:31.967Z,19.69
2022-11-05T08:19:32.252Z,19.69
2022-11-05T08:20:32.207Z,19.70
2022-11-05T08:21:34.028Z,19.72
2022-11-05T08:22:36.061Z,19.72
2022-11-05T08:23:33.402Z,19.73
2022-11-05T08:24:33.982Z,19.73
2022-11-05T08:25:34.002Z,19.76
2022-11-05T08:26:34.693Z,19.76
2022-11-05T08:27:33.969Z,19.76
2022-11-05T08:28:35.185Z,19.78
2022-11-05T08:29:33.471Z,19.79
2022-11-05T08:30:33.587Z,19.80
2022-11-05T08:31:36.322Z,19.80
2022-11-05T08:32:33.963Z,19.83
2022-11-05T08:33:34.109Z,19.84
2022-11-05T08:34:34.208Z,19.84
2022-11-05T08:35:34.325Z,19.86
2022-11-05T08:36:36.194Z,19.86
2022-11-05T08:37:34.544Z,19.87
2022-11-05T08:38:34.720Z,19.87
2022-11-05T08:39:36.551Z,19.88
2022-11-05T08:40:38.272Z,19.90
2022-11-05T08:41:35.507Z,19.91
2022-11-05T08:42:37.187Z,19.90
2022-11-05T08:43:35.421Z,19.93
2022-11-05T08:44:35.787Z,19.93
2022-11-05T08:45:38.448Z,19.94
2022-11-05T08:46:41.251Z,19.95
2022-11-05T08:47:36.960Z,19.97
2022-11-05T08:48:36.051Z,19.97
2022-11-05T08:49:36.232Z,19.97
2022-11-05T08:50:38.040Z,19.98
2022-11-05T08:51:36.452Z,20.00
2022-11-05T08:52:36.694Z,20.02
2022-11-05T08:53:38.407Z,20.02
2022-11-05T08:54:38.266Z,20.02
2022-11-05T08:55:37.018Z,20.03
2022-11-05T08:56:37.328Z,20.05
2022-11-05T08:57:37.235Z,20.05
2022-11-05T08:58:37.388Z,20.05
2022-11-05T08:59:38.699Z,20.05
2022-11-05T09:00:37.667Z,20.06
2022-11-05T09:01:40.495Z,20.09
2022-11-05T09:02:41.235Z,20.08
2022-11-05T09:03:40.031Z,20.08
2022-11-05T09:04:39.102Z,20.08
2022-11-05T09:05:39.441Z,20.10
2022-11-05T09:06:41.552Z,20.10
2022-11-05T09:07:38.774Z,20.10
2022-11-05T09:08:40.782Z,20.10
2022-11-05T09:09:39.013Z,20.13
2022-11-05T09:10:40.795Z,20.13
2022-11-05T09:12:05.724Z,20.15
2022-11-05T09:12:40.235Z,20.15
2022-11-05T09:13:39.707Z,20.16
2022-11-05T09:14:40.556Z,20.16
2022-11-05T09:15:41.314Z,20.16
2022-11-05T09:16:41.654Z,20.18
2022-11-05T09:17:40.066Z,20.18
2022-11-05T09:18:40.415Z,20.20
2022-11-05T09:19:40.372Z,20.18
2022-11-05T09:20:40.588Z,20.20
2022-11-05T09:21:42.602Z,20.21
2022-11-05T09:22:43.468Z,20.20
2022-11-05T09:23:41.613Z,20.20
2022-11-05T09:24:41.315Z,20.21
2022-11-05T09:25:41.242Z,20.23
2022-11-05T09:26:43.083Z,20.21
2022-11-05T09:27:41.464Z,20.24
2022-11-05T09:28:41.954Z,20.23
2022-11-05T09:29:41.663Z,20.24
2022-11-05T09:30:44.605Z,20.24
2022-11-05T09:31:44.731Z,20.24
2022-11-05T09:32:42.092Z,20.25
2022-11-05T09:33:42.262Z,20.24
2022-11-05T09:34:47.348Z,20.25
2022-11-05T09:35:44.336Z,20.27
2022-11-05T09:36:44.442Z,20.27
2022-11-05T09:37:45.215Z,20.27
2022-11-05T09:38:42.742Z,20.25
2022-11-05T09:39:42.959Z,20.27
2022-11-05T09:40:43.052Z,20.27
2022-11-05T09:41:43.234Z,20.27
2022-11-05T09:42:44.513Z,20.28
2022-11-05T09:43:43.591Z,20.30
2022-11-05T09:44:44.532Z,20.30
2022-11-05T09:45:43.772Z,20.31
2022-11-05T09:46:43.883Z,20.31
2022-11-05T09:47:45.715Z,20.31
2022-11-05T09:48:44.363Z,20.33
2022-11-05T09:49:46.037Z,20.33
2022-11-05T09:50:44.568Z,20.34
2022-11-05T09:51:46.578Z,20.33
2022-11-05T09:52:44.860Z,20.38
2022-11-05T09:53:47.130Z,20.35
2022-11-05T09:54:45.090Z,20.35
2022-11-05T09:55:45.170Z,20.38
2022-11-05T09:56:47.020Z,20.41
2022-11-05T09:57:46.029Z,20.39
2022-11-05T09:58:47.247Z,20.41
2022-11-05T09:59:45.949Z,20.41
2022-11-05T10:00:45.871Z,20.39
2022-11-05T10:01:46.226Z,20.42
2022-11-05T10:13:07.017Z,20.23
2022-11-05T10:14:07.618Z,20.24
2022-11-05T10:15:09.744Z,20.21
2022-11-05T10:16:07.222Z,20.23
2022-11-05T10:17:09.885Z,20.24
2022-11-05T10:18:08.222Z,20.25
2022-11-05T10:19:07.575Z,20.28
2022-11-05T10:20:07.675Z,20.30
2022-11-05T10:21:09.426Z,20.33
2022-11-05T10:22:07.962Z,20.33
2022-11-05T10:23:08.478Z,20.34
2022-11-05T10:24:08.215Z,20.38
2022-11-05T10:25:09.961Z,20.39
2022-11-05T10:26:08.482Z,20.39
2022-11-05T10:27:08.688Z,20.41
2022-11-05T10:28:08.765Z,20.42
2022-11-05T10:29:08.964Z,20.43
2022-11-05T10:30:10.778Z,20.46
2022-11-05T10:31:09.232Z,20.47
2022-11-05T10:32:11.875Z,20.47
2022-11-05T10:33:09.767Z,20.49
2022-11-05T10:34:11.382Z,20.51
2022-11-05T10:35:09.798Z,20.50
2022-11-05T10:36:09.974Z,20.50
2022-11-05T10:37:10.054Z,20.51
2022-11-05T10:38:10.365Z,20.53
2022-11-05T10:39:11.481Z,20.53
2022-11-05T10:40:11.482Z,20.51
2022-11-05T10:41:12.215Z,20.54
2022-11-05T10:42:10.692Z,20.56
2022-11-05T10:43:11.398Z,20.56
2022-11-05T10:44:16.045Z,20.54
2022-11-05T10:45:14.843Z,20.58
2022-11-05T10:46:14.257Z,20.56
2022-11-05T10:47:13.692Z,20.58
2022-11-05T10:48:11.705Z,20.59
2022-11-05T10:49:12.663Z,20.58
2022-11-05T10:50:12.074Z,20.59
2022-11-05T10:51:14.742Z,20.59
2022-11-05T10:52:12.240Z,20.59
2022-11-05T10:53:15.094Z,20.61
2022-11-05T10:54:12.540Z,20.59
2022-11-05T10:55:14.427Z,20.61
2022-11-05T10:56:12.886Z,20.62
2022-11-05T10:57:13.648Z,20.62
2022-11-05T10:58:13.076Z,20.61
2022-11-05T10:59:13.244Z,20.64
2022-11-05T11:00:16.371Z,20.64
2022-11-05T11:01:13.476Z,20.64
2022-11-05T11:02:15.574Z,20.64
2022-11-05T11:03:14.498Z,20.65
2022-11-05T11:04:15.669Z,20.66
2022-11-05T11:05:14.102Z,20.65
2022-11-05T11:06:16.071Z,20.66
2022-11-05T11:07:16.100Z,20.68
2022-11-05T11:08:14.362Z,20.66
2022-11-05T11:09:14.619Z,20.66
2022-11-05T11:10:15.697Z,20.69
2022-11-05T11:11:16.477Z,20.68
2022-11-05T11:12:16.881Z,20.69
2022-11-05T11:13:15.124Z,20.69
2022-11-05T11:14:16.890Z,20.69
2022-11-05T11:15:15.307Z,20.71
2022-11-05T11:16:17.407Z,20.74
2022-11-05T11:17:15.601Z,20.72
2022-11-05T11:18:15.772Z,20.72
2022-11-05T11:19:17.529Z,20.76
2022-11-05T11:20:17.436Z,20.74
2022-11-05T11:21:16.997Z,20.76
2022-11-05T11:22:16.360Z,20.77
2022-11-05T11:23:18.322Z,20.76
2022-11-05T11:24:17.470Z,20.77
2022-11-05T11:25:16.752Z,20.79
2022-11-05T11:26:16.866Z,20.80
2022-11-05T11:27:17.721Z,20.80
2022-11-05T11:28:20.448Z,20.81
2022-11-05T11:29:17.408Z,20.81
2022-11-05T11:30:19.253Z,20.80
2022-11-05T11:31:18.317Z,20.83
2022-11-05T11:32:18.488Z,20.81
2022-11-05T11:33:18.637Z,20.83
2022-11-05T11:34:21.161Z,20.84
2022-11-05T11:35:18.127Z,20.84
2022-11-05T11:36:20.415Z,20.86
2022-11-05T11:37:19.670Z,20.84
2022-11-05T11:38:18.626Z,20.86
2022-11-05T11:39:20.426Z,20.84
2022-11-05T11:40:19.755Z,20.84
2022-11-05T11:41:19.909Z,20.86
2022-11-05T11:42:19.015Z,20.89
2022-11-05T11:43:19.351Z,20.89
2022-11-05T11:44:20.977Z,20.89
2022-11-05T11:45:19.413Z,20.91
2022-11-05T11:46:19.711Z,20.90
2022-11-05T11:47:19.682Z,20.91
2022-11-05T11:48:19.744Z,20.90
2022-11-05T11:49:21.613Z,20.91
2022-11-05T11:50:20.086Z,20.93
2022-11-05T11:51:21.848Z,20.95
2022-11-05T11:52:22.124Z,20.95
2022-11-05T11:53:20.395Z,20.96
2022-11-05T11:54:21.274Z,20.96
2022-11-05T11:55:22.881Z,20.96
2022-11-05T11:56:21.613Z,20.98
2022-11-05T11:57:21.257Z,20.98
2022-11-05T11:58:23.028Z,20.99
2022-11-05T11:59:35.095Z,20.98
2022-11-05T12:00:22.217Z,20.99
2022-11-05T12:01:23.057Z,21.01
2022-11-05T12:02:21.633Z,21.02
2022-11-05T12:03:21.991Z,21.01
2022-11-05T12:04:22.581Z,21.02
2022-11-05T12:05:22.145Z,21.02
2022-11-05T12:06:24.497Z,21.05
2022-11-05T12:07:22.235Z,21.05
2022-11-05T12:08:22.467Z,21.04
2022-11-05T12:09:22.575Z,21.06
2022-11-05T12:10:23.054Z,21.05
2022-11-05T12:11:24.333Z,21.06
2022-11-05T12:12:25.778Z,21.06
2022-11-05T12:13:23.025Z,21.06
2022-11-05T12:14:24.186Z,21.09
2022-11-05T12:15:23.252Z,21.09
2022-11-05T12:16:25.014Z,21.08
2022-11-05T12:17:23.639Z,21.11
2022-11-05T12:18:23.693Z,21.13
2022-11-05T12:19:26.027Z,21.13
2022-11-05T12:20:23.970Z,21.13
2022-11-05T12:21:48.065Z,21.13
2022-11-05T12:22:27.122Z,21.14
2022-11-05T12:23:24.430Z,21.14
2022-11-05T12:24:25.673Z,21.14
2022-11-05T12:25:24.711Z,21.16
2022-11-05T12:26:24.878Z,21.16
2022-11-05T12:27:26.358Z,21.16
2022-11-05T12:28:25.198Z,21.14
2022-11-05T12:29:25.343Z,21.17
2022-11-05T12:30:25.452Z,21.19
2022-11-05T12:31:25.549Z,21.19
2022-11-05T12:32:27.899Z,21.20
2022-11-05T12:33:27.017Z,21.20
2022-11-05T12:34:27.203Z,21.19
2022-11-05T12:35:27.711Z,21.20
2022-11-05T12:36:26.338Z,21.20
2022-11-05T12:37:27.392Z,21.20
2022-11-05T12:38:27.558Z,21.21
2022-11-05T12:39:27.622Z,21.21
2022-11-05T12:40:27.915Z,21.23
2022-11-05T12:41:28.757Z,21.23
2022-11-05T12:42:26.997Z,21.24
2022-11-05T12:43:29.030Z,21.26
2022-11-05T12:44:27.284Z,21.24
2022-11-05T12:45:29.118Z,21.23
2022-11-05T12:46:28.595Z,21.23
2022-11-05T12:47:28.677Z,21.20
2022-11-05T12:48:34.238Z,21.23
2022-11-05T12:49:29.028Z,21.21
2022-11-05T12:50:29.490Z,21.21
2022-11-05T12:51:29.612Z,21.21
2022-11-05T12:52:28.490Z,21.21
2022-11-05T12:53:30.759Z,21.21
2022-11-05T12:54:28.766Z,21.20
2022-11-05T12:55:31.057Z,21.21
2022-11-05T12:56:30.076Z,21.21
2022-11-05T12:57:29.157Z,21.21
2022-11-05T12:58:30.432Z,21.20
2022-11-05T12:59:29.530Z,21.19
2022-11-05T13:00:29.658Z,21.19
2022-11-05T13:01:30.010Z,21.21
2022-11-05T13:02:30.311Z,21.21
2022-11-05T13:03:31.347Z,21.19
2022-11-05T13:04:30.232Z,21.21
2022-11-05T13:05:31.518Z,21.21
2022-11-05T13:06:31.474Z,21.21
2022-11-05T13:07:39.745Z,21.21
2022-11-05T13:08:31.855Z,21.20
2022-11-05T13:09:30.866Z,21.21
2022-11-05T13:10:32.203Z,21.20
2022-11-05T13:11:32.154Z,21.20
2022-11-05T13:12:32.527Z,21.23
2022-11-05T13:13:32.604Z,21.24
2022-11-05T13:14:32.584Z,21.27
2022-11-05T13:15:32.883Z,21.26
2022-11-05T13:16:35.244Z,21.27
2022-11-05T13:17:35.074Z,21.27
2022-11-05T13:18:32.201Z,21.27
2022-11-05T13:19:33.938Z,21.26
2022-11-05T13:20:33.481Z,21.26
2022-11-05T13:21:33.941Z,21.24
2022-11-05T13:22:33.862Z,21.23
2022-11-05T13:23:33.902Z,21.24
2022-11-05T13:24:34.713Z,21.23
2022-11-05T13:25:35.246Z,21.23
2022-11-05T13:26:34.312Z,21.20
2022-11-05T13:27:35.043Z,21.21
2022-11-05T13:28:33.530Z,21.21
2022-11-05T13:29:34.820Z,21.20
2022-11-05T13:30:36.626Z,21.20
2022-11-05T13:31:33.988Z,21.20
2022-11-05T13:32:34.104Z,21.19
2022-11-05T13:33:34.213Z,21.20
2022-11-05T13:34:37.782Z,21.20
2022-11-05T13:35:35.461Z,21.20
2022-11-05T13:36:35.533Z,21.20
2022-11-05T13:37:34.670Z,21.19
2022-11-05T13:38:37.552Z,21.19
2022-11-05T13:39:37.390Z,21.20
2022-11-05T13:40:36.081Z,21.17
2022-11-05T13:41:36.332Z,21.19
2022-11-05T13:42:37.973Z,21.19
2022-11-05T13:43:36.565Z,21.19
2022-11-05T13:44:36.704Z,21.19
2022-11-05T13:45:36.860Z,21.17
2022-11-05T13:46:37.070Z,21.16
2022-11-05T13:47:37.820Z,21.14
2022-11-05T13:48:37.642Z,21.14
2022-11-05T13:49:36.903Z,21.14
2022-11-05T13:50:37.480Z,21.13
2022-11-05T13:51:39.305Z,21.11
2022-11-05T13:52:37.633Z,21.11
2022-11-05T13:53:38.930Z,21.11
2022-11-05T13:54:37.040Z,21.11
2022-11-05T13:55:37.109Z,21.11
2022-11-05T13:56:37.228Z,21.09
2022-11-05T13:57:38.999Z,21.09
2022-11-05T13:58:37.492Z,21.09
2022-11-05T13:59:39.341Z,21.08
2022-11-05T14:00:37.760Z,21.06
2022-11-05T14:01:37.921Z,21.06
2022-11-05T14:02:39.230Z,21.06
2022-11-05T14:03:38.204Z,21.06
2022-11-05T14:04:40.907Z,21.04
2022-11-05T14:05:38.402Z,21.02
2022-11-05T14:06:39.801Z,21.04
2022-11-05T14:07:39.998Z,21.02
2022-11-05T14:08:38.864Z,21.01
2022-11-05T14:09:40.032Z,20.99
2022-11-05T14:10:40.620Z,20.99
2022-11-05T14:11:40.258Z,21.01
2022-11-05T14:12:40.411Z,20.99
2022-11-05T14:13:40.645Z,21.01
2022-11-05T14:14:40.796Z,20.96
2022-11-05T14:15:40.886Z,20.98
2022-11-05T14:16:40.950Z,20.96
2022-11-05T14:17:42.758Z,20.95
2022-11-05T14:18:41.269Z,20.93
2022-11-05T14:19:42.679Z,20.93
2022-11-05T14:20:42.378Z,20.93
2022-11-05T14:21:43.097Z,20.95
2022-11-05T14:22:43.482Z,20.93
2022-11-05T14:23:41.905Z,20.91
2022-11-05T14:24:42.766Z,20.91
2022-11-05T14:25:42.145Z,20.90
2022-11-05T14:26:42.557Z,20.90
2022-11-05T14:27:41.397Z,20.87
2022-11-05T14:28:42.625Z,20.87
2022-11-05T14:29:41.690Z,20.87
2022-11-05T14:30:43.478Z,20.87
2022-11-05T14:32:07.777Z,20.87
2022-11-05T14:32:44.292Z,20.87
2022-11-05T14:33:42.400Z,20.84
2022-11-05T14:34:43.401Z,20.84
2022-11-05T14:35:43.515Z,20.84
2022-11-05T14:36:43.720Z,20.83
2022-11-05T14:37:44.474Z,20.83
2022-11-05T14:38:42.908Z,20.83
2022-11-05T14:39:43.000Z,20.83
2022-11-05T14:40:44.863Z,20.83
2022-11-05T14:41:45.148Z,20.83
2022-11-05T14:42:45.373Z,20.83
2022-11-05T14:43:43.647Z,20.83
2022-11-05T14:44:45.424Z,20.79
2022-11-05T14:45:43.924Z,20.79
2022-11-05T14:46:44.012Z,20.80
2022-11-05T14:47:45.361Z,20.79
2022-11-05T14:48:46.197Z,20.79
2022-11-05T14:49:44.404Z,20.76
2022-11-05T14:50:46.284Z,20.77
2022-11-05T14:51:46.080Z,20.74
2022-11-05T14:52:45.860Z,20.76
2022-11-05T14:53:46.133Z,20.76
2022-11-05T14:54:46.689Z,20.74
2022-11-05T14:55:45.161Z,20.74
2022-11-05T14:56:53.214Z,20.74
2022-11-05T14:57:46.458Z,20.74
2022-11-05T14:58:47.413Z,20.74
2022-11-05T14:59:45.698Z,20.74
2022-11-05T15:00:47.658Z,20.72
2022-11-05T15:01:47.845Z,20.71
2022-11-05T15:02:47.131Z,20.71
2022-11-05T15:03:48.017Z,20.72
2022-11-05T15:04:47.550Z,20.72
2022-11-05T15:05:48.384Z,20.71
2022-11-05T15:06:48.043Z,20.69
2022-11-05T15:07:47.161Z,20.71
2022-11-05T15:08:47.580Z,20.71
2022-11-05T15:09:47.221Z,20.68
2022-11-05T15:10:48.645Z,20.68
2022-11-05T15:11:49.248Z,20.68
2022-11-05T15:12:51.417Z,20.66
2022-11-05T15:13:48.651Z,20.66
2022-11-05T15:14:49.483Z,20.65
2022-11-05T15:15:49.041Z,20.65
2022-11-05T15:16:48.782Z,20.65
2022-11-05T15:17:50.173Z,20.65
2022-11-05T15:18:49.303Z,20.65
2022-11-05T15:19:49.563Z,20.64
2022-11-05T15:20:50.899Z,20.64
2022-11-05T15:21:48.771Z,20.62
2022-11-05T15:22:51.450Z,20.64
2022-11-05T15:23:49.969Z,20.62
2022-11-05T15:24:51.728Z,20.62
2022-11-05T15:25:53.202Z,20.61
2022-11-05T15:26:50.068Z,20.62
2022-11-05T15:27:49.681Z,20.62
2022-11-05T15:28:51.328Z,20.59
2022-11-05T15:29:56.767Z,20.61
2022-11-05T15:30:49.950Z,20.59
2022-11-05T15:31:51.837Z,20.58
2022-11-05T15:32:51.023Z,20.58
2022-11-05T15:33:51.907Z,20.59
2022-11-05T15:34:51.440Z,20.59
2022-11-05T15:35:50.568Z,20.59
2022-11-05T15:36:52.207Z,20.58
2022-11-05T15:37:55.954Z,20.56
2022-11-05T15:39:15.201Z,20.56
2022-11-05T15:39:51.977Z,20.56
2022-11-05T15:40:51.165Z,20.56
2022-11-05T15:41:53.013Z,20.56
2022-11-05T15:42:51.516Z,20.54
2022-11-05T15:43:52.466Z,20.54
2022-11-05T15:44:52.667Z,20.54
2022-11-05T15:45:52.866Z,20.53
2022-11-05T15:46:54.604Z,20.56
2022-11-05T15:47:55.848Z,20.53
2022-11-05T15:48:52.173Z,20.53
2022-11-05T15:49:54.780Z,20.51
2022-11-05T15:50:53.435Z,20.53
2022-11-05T15:51:53.273Z,20.51
2022-11-05T15:52:53.970Z,20.51
2022-11-05T15:54:29.078Z,20.51
2022-11-05T15:54:54.116Z,20.50
2022-11-05T15:55:54.196Z,20.51
2022-11-05T15:56:53.447Z,20.50
2022-11-05T15:57:55.147Z,20.50
2022-11-05T15:58:55.466Z,20.49
2022-11-05T15:59:54.769Z,20.49
2022-11-05T16:00:55.503Z,20.50
2022-11-05T16:12:18.822Z,20.23
2022-11-05T16:13:20.572Z,20.20
2022-11-05T16:14:19.036Z,20.20
2022-11-05T16:15:20.343Z,20.20
2022-11-05T16:16:19.297Z,20.20
2022-11-05T16:17:19.356Z,20.21
2022-11-05T16:18:21.614Z,20.23
2022-11-05T16:19:19.711Z,20.24
2022-11-05T16:20:21.911Z,20.25
2022-11-05T16:21:20.872Z,20.27
2022-11-05T16:22:19.983Z,20.27
2022-11-05T16:23:21.481Z,20.27
2022-11-05T16:24:24.085Z,20.28
2022-11-05T16:25:22.452Z,20.30
2022-11-05T16:26:41.277Z,20.31
2022-11-05T16:27:23.786Z,20.31
2022-11-05T16:28:22.581Z,20.31
2022-11-05T16:29:20.891Z,20.31
2022-11-05T16:30:22.718Z,20.33
2022-11-05T16:31:21.154Z,20.33
2022-11-05T16:32:26.874Z,20.33
2022-11-05T16:33:23.656Z,20.31
2022-11-05T16:34:22.588Z,20.33
2022-11-05T16:35:23.203Z,20.33
2022-11-05T16:36:23.389Z,20.33
2022-11-05T16:37:22.047Z,20.33
2022-11-05T16:38:23.818Z,20.34
2022-11-05T16:39:22.425Z,20.33
2022-11-05T16:40:23.483Z,20.34
2022-11-05T16:41:23.627Z,20.33
2022-11-05T16:42:24.533Z,20.33
2022-11-05T16:43:23.977Z,20.34
2022-11-05T16:44:23.846Z,20.33
2022-11-05T16:45:23.146Z,20.33
2022-11-05T16:46:24.466Z,20.34
2022-11-05T16:47:23.355Z,20.33
2022-11-05T16:48:25.654Z,20.34
2022-11-05T16:49:23.746Z,20.33
2022-11-05T16:50:26.006Z,20.31
2022-11-05T16:51:27.437Z,20.33
2022-11-05T16:52:25.014Z,20.34
2022-11-05T16:53:25.370Z,20.31
2022-11-05T16:54:25.440Z,20.31
2022-11-05T16:55:26.765Z,20.34
2022-11-05T16:56:25.625Z,20.33
2022-11-05T16:57:25.805Z,20.33
2022-11-05T16:58:27.055Z,20.31
2022-11-05T16:59:25.105Z,20.31
2022-11-05T17:00:25.165Z,20.33
2022-11-05T17:01:26.575Z,20.33
2022-11-05T17:02:26.634Z,20.31
2022-11-05T17:03:26.961Z,20.31
2022-11-05T17:04:26.705Z,20.30
2022-11-05T17:05:26.146Z,20.31
2022-11-05T17:06:27.366Z,20.31
2022-11-05T17:07:27.214Z,20.31
2022-11-05T17:08:27.333Z,20.30
2022-11-05T17:09:27.384Z,20.31
2022-11-05T17:10:27.625Z,20.30
2022-11-05T17:11:27.744Z,20.30
2022-11-05T17:12:30.536Z,20.30
2022-11-05T17:13:28.253Z,20.31